Portada
METAR-TAF:

METAR-TAF

Aeroports :

Honiara, Guadalcanal, Illes Salomó

latitud: 09-25S, longitud: 160-03E, altitud: 8 m

Observació

L'informe es va fer fa 13 minuts, a les 12:00 UTC
Vent 2 kt del Sud
Temperatura 25°C
Humitat 89%
Pressió 1012 hPa
Visibilitat 10 km o més
Escasses núvols a una alçada de 1500 ft
Núvols disperses a una alçada de 30000 ft

METAR: AGGH 281200Z 18002KT 9999 FEW015 SCT300 25/23 Q1012

Hora: 23:13 (12:13 UTC)

Pronòstic

L'informe es va fer fa 1 hora i 13 minuts, a les 11:00 UTC
Pronòstic vàlid del 28 a les 12 UTC al 29 a les 12 UTC
Vent 10 kt del Est
Visibilitat: 1011 m
Núvols disperses a una alçada de 1800 ft

TAF: AGGH 281100Z 2812/2912 09010KT 9999 SCT018 T 25 24 23 28 Q 1012 1010 1009 1011

Observacions i pronòstics meteorològics de més de 4000 aeroports (METAR i TAF).

Les estacions disponibles són els punts grocs i vermells al mapa.

Posi el ratolí al punt desitjat per veure el nom de l'estació.

Feu clic per veure les observacions i els pronòstics meteorològics.

Per canviar el mapa: feu clic els botons verds amb una creu de color negre per apropar; al botó verd amb un guió per allunyar la imatge; o en les fletxes verdes per a mapes adjacents.


METAR-TAF: